Time;durP1;ratioP1;P1;durP2;ratioP2;P2;SDS_P1;SDS_P2;PMS_P1;PMS_P2;Temp;Humidity;BMP_temperature;BMP_pressure;BME280_temperature;BME280_humidity;BME280_pressure;Samples;Min_cycle;Max_cycle;Signal;HPM_P1;HPM_P2
2021/11/04 00:01:02;;;;;;;7.00;6.40;;;7.10;99.90;;;;;;5021032;28;20568;-78
2021/11/04 00:03:28;;;;;;;5.33;4.93;;;7.10;99.90;;;;;;5036175;28;20178;-77
2021/11/04 00:05:54;;;;;;;5.30;4.90;;;7.00;99.90;;;;;;5018107;28;20662;-77
2021/11/04 00:08:20;;;;;;;5.20;4.70;;;6.80;99.90;;;;;;5035849;28;20669;-77
2021/11/04 00:10:46;;;;;;;4.67;4.27;;;6.80;99.90;;;;;;5038939;28;20200;-77
2021/11/04 00:13:12;;;;;;;3.83;3.20;;;6.80;99.90;;;;;;5018076;28;20173;-78
2021/11/04 00:15:37;;;;;;;2.83;2.63;;;6.70;99.90;;;;;;5035521;28;20245;-77
2021/11/04 00:18:03;;;;;;;3.20;2.90;;;6.60;99.90;;;;;;5035861;28;20258;-77
2021/11/04 00:20:30;;;;;;;3.20;2.33;;;6.60;99.90;;;;;;5035915;28;20694;-77
2021/11/04 00:22:56;;;;;;;2.63;2.40;;;6.60;99.90;;;;;;5035824;28;20259;-79
2021/11/04 00:25:22;;;;;;;2.60;2.40;;;6.60;99.90;;;;;;5035770;28;20205;-78
2021/11/04 00:27:48;;;;;;;2.63;2.37;;;6.60;99.90;;;;;;5016672;28;20190;-77
2021/11/04 00:30:15;;;;;;;3.27;3.00;;;6.50;99.90;;;;;;5035626;28;20324;-77
2021/11/04 00:32:49;;;;;;;3.10;2.90;;;6.40;99.90;;;;;;5035582;28;20173;-77
2021/11/04 00:35:15;;;;;;;3.30;3.10;;;6.30;99.90;;;;;;5035757;28;20544;-78
2021/11/04 00:37:41;;;;;;;3.90;3.50;;;6.30;99.90;;;;;;5035208;28;20191;-77
2021/11/04 00:40:08;;;;;;;3.47;3.23;;;6.40;99.90;;;;;;5035155;28;20200;-77
2021/11/04 00:42:34;;;;;;;3.27;3.07;;;6.40;99.90;;;;;;5035249;28;20177;-77
2021/11/04 00:45:00;;;;;;;3.20;2.90;;;6.20;99.90;;;;;;5005579;28;20204;-77
2021/11/04 00:47:26;;;;;;;3.50;3.30;;;6.10;99.90;;;;;;5035178;28;20200;-77
2021/11/04 00:49:52;;;;;;;2.77;2.57;;;6.20;99.90;;;;;;5017323;28;20215;-77
2021/11/04 00:52:17;;;;;;;3.27;3.07;;;6.10;99.90;;;;;;5035530;28;20176;-77
2021/11/04 00:54:43;;;;;;;3.53;2.90;;;6.10;99.90;;;;;;5035694;28;20187;-77
2021/11/04 00:57:09;;;;;;;2.73;2.53;;;6.20;99.90;;;;;;5017617;28;20182;-77
2021/11/04 00:59:34;;;;;;;3.37;3.17;;;6.10;99.90;;;;;;5034694;28;20280;-77
2021/11/04 01:02:00;;;;;;;3.10;2.90;;;6.00;99.90;;;;;;5017946;28;20177;-77
2021/11/04 01:04:26;;;;;;;2.83;2.63;;;6.00;99.90;;;;;;5034696;28;20252;-77
2021/11/04 01:06:51;;;;;;;3.33;2.50;;;6.00;99.90;;;;;;5017604;28;20179;-78
2021/11/04 01:09:17;;;;;;;2.90;2.70;;;6.00;99.90;;;;;;5017139;28;20225;-77
2021/11/04 01:11:43;;;;;;;2.80;2.60;;;5.90;99.90;;;;;;5034504;28;20171;-77
2021/11/04 01:14:08;;;;;;;2.57;2.37;;;5.90;99.90;;;;;;5016852;28;20252;-77
2021/11/04 01:16:34;;;;;;;3.23;2.57;;;5.90;99.90;;;;;;5035091;28;20658;-77
2021/11/04 01:19:00;;;;;;;2.70;2.50;;;6.00;99.90;;;;;;5034733;28;20176;-77
2021/11/04 01:21:26;;;;;;;2.47;2.20;;;5.90;99.90;;;;;;5034446;28;20181;-78
2021/11/04 01:23:51;;;;;;;2.53;2.37;;;6.00;99.90;;;;;;5034133;28;20176;-77
2021/11/04 01:26:17;;;;;;;2.63;2.43;;;5.80;99.90;;;;;;5034035;28;20261;-77
2021/11/04 01:28:44;;;;;;;4.27;3.03;;;5.80;99.90;;;;;;5033912;28;20199;-77
2021/11/04 01:31:09;;;;;;;2.73;2.53;;;5.70;99.90;;;;;;5015626;28;20683;-77
2021/11/04 01:33:35;;;;;;;3.10;2.90;;;5.70;99.90;;;;;;5034416;28;20258;-77
2021/11/04 01:36:00;;;;;;;3.27;3.07;;;5.70;99.90;;;;;;5033808;28;20174;-77
2021/11/04 01:38:26;;;;;;;3.30;3.10;;;5.60;99.90;;;;;;5016341;28;20204;-77
2021/11/04 01:40:52;;;;;;;2.90;2.70;;;5.50;99.90;;;;;;5034136;28;20283;-77
2021/11/04 01:43:18;;;;;;;2.97;2.77;;;5.70;99.90;;;;;;5016697;28;20188;-77
2021/11/04 01:45:46;;;;;;;2.87;2.67;;;5.70;99.90;;;;;;5034235;28;20225;-77
2021/11/04 01:48:12;;;;;;;2.80;2.60;;;5.70;99.90;;;;;;5034708;28;20742;-78
2021/11/04 01:50:38;;;;;;;3.33;3.07;;;5.80;99.90;;;;;;5034151;28;20231;-77
2021/11/04 01:53:03;;;;;;;3.10;2.90;;;5.90;99.90;;;;;;5033828;28;20517;-77
2021/11/04 01:55:31;;;;;;;3.00;2.80;;;5.80;99.90;;;;;;5033451;28;20594;-77
2021/11/04 01:57:57;;;;;;;2.90;2.70;;;5.90;99.90;;;;;;5032089;28;20173;-77
2021/11/04 02:00:27;;;;;;;3.00;2.80;;;5.80;99.90;;;;;;5035169;28;20261;-77
2021/11/04 02:03:16;;;;;;;3.07;2.87;;;5.70;99.90;;;;;;5008599;28;20186;-78
2021/11/04 02:06:09;;;;;;;3.00;2.70;;;5.80;99.90;;;;;;5035429;28;20238;-78
2021/11/04 02:08:52;;;;;;;2.73;2.53;;;5.90;99.90;;;;;;5041622;28;20193;-77
2021/11/04 02:11:22;;;;;;;3.07;2.60;;;6.00;99.90;;;;;;5034171;28;20193;-77
2021/11/04 02:13:58;;;;;;;2.70;2.50;;;5.90;99.90;;;;;;5033787;28;20213;-77
2021/11/04 02:16:29;;;;;;;2.47;2.33;;;6.10;99.90;;;;;;5034247;28;20169;-77
2021/11/04 02:19:07;;;;;;;2.60;2.40;;;5.90;99.90;;;;;;5038048;28;20547;-77
2021/11/04 02:21:44;;;;;;;2.43;2.20;;;5.80;99.90;;;;;;5016701;28;20552;-77
2021/11/04 02:24:23;;;;;;;2.67;2.47;;;5.80;99.90;;;;;;5034260;28;20176;-77
2021/11/04 02:26:51;;;;;;;2.70;2.50;;;5.70;99.90;;;;;;5016480;28;20204;-77
2021/11/04 02:29:17;;;;;;;2.80;2.60;;;5.70;99.90;;;;;;5033781;28;20214;-77
2021/11/04 02:31:45;;;;;;;3.10;2.90;;;5.70;99.90;;;;;;5033616;28;20176;-78
2021/11/04 02:34:11;;;;;;;3.13;2.90;;;5.70;99.90;;;;;;5033871;28;20173;-77
2021/11/04 02:36:38;;;;;;;2.83;2.63;;;5.80;99.90;;;;;;5032379;28;20191;-77
2021/11/04 02:39:05;;;;;;;3.03;2.83;;;5.80;99.90;;;;;;5033911;28;20177;-77
2021/11/04 02:41:32;;;;;;;4.70;3.57;;;5.90;99.90;;;;;;5031503;28;20599;-78
2021/11/04 02:44:01;;;;;;;4.03;3.63;;;5.90;99.90;;;;;;5028128;28;20188;-78
2021/11/04 02:46:28;;;;;;;3.57;3.27;;;5.90;99.90;;;;;;5032254;28;20208;-77
2021/11/04 02:48:54;;;;;;;3.40;3.13;;;5.90;99.90;;;;;;5031743;28;20232;-77
2021/11/04 02:51:21;;;;;;;2.73;2.53;;;5.80;99.90;;;;;;5034196;28;20224;-78
2021/11/04 02:53:47;;;;;;;3.87;3.30;;;5.70;99.90;;;;;;5019985;28;20221;-78
2021/11/04 02:56:14;;;;;;;3.40;3.20;;;5.90;99.90;;;;;;5037024;28;20197;-78
2021/11/04 02:58:40;;;;;;;2.73;2.53;;;5.90;99.90;;;;;;5036797;28;20189;-78
2021/11/04 03:01:06;;;;;;;3.20;3.00;;;5.90;99.90;;;;;;5037744;28;20240;-78
2021/11/04 03:03:33;;;;;;;3.40;3.10;;;5.70;99.90;;;;;;5019137;28;20549;-78
2021/11/04 03:05:59;;;;;;;3.27;3.07;;;5.60;99.90;;;;;;5036360;28;20183;-78
2021/11/04 03:08:25;;;;;;;3.37;3.17;;;5.50;99.90;;;;;;5036677;28;20212;-78
2021/11/04 03:10:54;;;;;;;3.53;3.23;;;5.60;99.90;;;;;;5036856;28;20683;-77
2021/11/04 03:13:20;;;;;;;3.20;3.00;;;5.60;99.90;;;;;;5036361;28;20161;-78
2021/11/04 03:15:58;;;;;;;2.97;2.77;;;5.60;99.90;;;;;;5018531;28;20188;-78
2021/11/04 03:18:24;;;;;;;4.20;3.30;;;5.70;99.90;;;;;;5018742;28;20221;-78
2021/11/04 03:20:52;;;;;;;3.20;3.00;;;5.60;99.90;;;;;;5036513;28;20197;-78
2021/11/04 03:23:18;;;;;;;3.07;2.87;;;5.50;99.90;;;;;;5036211;28;20184;-78
2021/11/04 03:25:46;;;;;;;3.27;3.07;;;5.50;99.90;;;;;;5018368;28;20176;-78
2021/11/04 03:28:12;;;;;;;3.63;3.27;;;5.50;99.90;;;;;;5036338;28;20251;-77
2021/11/04 03:30:40;;;;;;;3.03;2.83;;;5.40;99.90;;;;;;5018471;28;20186;-78
2021/11/04 03:33:08;;;;;;;3.13;2.93;;;5.40;99.90;;;;;;5018623;28;20209;-78
2021/11/04 03:35:36;;;;;;;3.33;3.03;;;5.40;99.90;;;;;;5018837;28;20168;-77
2021/11/04 03:38:06;;;;;;;5.83;3.20;;;5.50;99.90;;;;;;5036341;28;20281;-78
2021/11/04 03:40:33;;;;;;;3.37;3.17;;;5.50;99.90;;;;;;5037010;28;20239;-78
2021/11/04 03:43:00;;;;;;;3.50;3.20;;;5.60;99.90;;;;;;5036346;28;20540;-78
2021/11/04 03:45:26;;;;;;;3.20;3.00;;;5.50;99.90;;;;;;5036392;28;20175;-78
2021/11/04 03:47:52;;;;;;;3.47;3.17;;;5.60;99.90;;;;;;5018474;28;20272;-78
2021/11/04 03:50:19;;;;;;;3.87;3.57;;;5.60;99.90;;;;;;5018437;28;20216;-78
2021/11/04 03:52:45;;;;;;;3.30;3.10;;;5.60;99.90;;;;;;5036997;28;20168;-77
2021/11/04 03:55:13;;;;;;;3.60;3.30;;;5.70;99.90;;;;;;5037089;28;20184;-77
2021/11/04 03:57:45;;;;;;;4.10;3.80;;;5.70;99.90;;;;;;5018255;28;20181;-78
2021/11/04 04:00:12;;;;;;;3.10;2.90;;;5.70;99.90;;;;;;5017947;28;20200;-77
2021/11/04 04:02:38;;;;;;;3.57;3.27;;;5.60;99.90;;;;;;5017582;28;20258;-78
2021/11/04 04:05:04;;;;;;;3.50;3.20;;;5.60;99.90;;;;;;5035963;28;20258;-78
2021/11/04 04:07:31;;;;;;;3.53;3.23;;;5.50;99.90;;;;;;5018155;28;20600;-78
2021/11/04 04:09:58;;;;;;;3.53;3.27;;;5.60;99.90;;;;;;5017998;28;20191;-78
2021/11/04 04:12:24;;;;;;;4.03;3.73;;;5.60;99.90;;;;;;5036345;28;20176;-78
2021/11/04 04:14:50;;;;;;;3.33;3.10;;;5.60;99.90;;;;;;5033552;28;20257;-78
2021/11/04 04:17:17;;;;;;;3.70;3.50;;;5.60;99.90;;;;;;5023247;28;20266;-78
2021/11/04 04:19:43;;;;;;;4.03;3.53;;;5.60;99.90;;;;;;5035845;28;20729;-78
2021/11/04 04:22:09;;;;;;;3.57;3.30;;;5.70;99.90;;;;;;5035139;28;20200;-78
2021/11/04 04:24:34;;;;;;;3.67;3.37;;;5.60;99.90;;;;;;5047907;28;20211;-78
2021/11/04 04:27:01;;;;;;;4.13;3.77;;;5.60;99.90;;;;;;5035591;28;20171;-78
2021/11/04 04:29:27;;;;;;;3.77;3.47;;;5.70;99.90;;;;;;5027536;28;20213;-78
2021/11/04 04:31:53;;;;;;;3.70;3.40;;;5.80;99.90;;;;;;5032192;28;20174;-78
2021/11/04 04:34:19;;;;;;;3.90;3.60;;;5.50;99.90;;;;;;5035366;28;20177;-78
2021/11/04 04:36:45;;;;;;;4.10;3.80;;;5.50;99.90;;;;;;5035546;28;20703;-78
2021/11/04 04:39:11;;;;;;;3.90;3.60;;;5.70;99.90;;;;;;5038212;28;20257;-78
2021/11/04 04:41:37;;;;;;;3.97;3.67;;;5.60;99.90;;;;;;5026140;28;20222;-78
2021/11/04 04:44:03;;;;;;;4.03;3.77;;;5.60;99.90;;;;;;5035035;28;20175;-78
2021/11/04 04:46:29;;;;;;;4.40;3.97;;;5.60;99.90;;;;;;5017131;28;20183;-78
2021/11/04 04:48:54;;;;;;;4.30;3.90;;;5.60;99.90;;;;;;5034767;28;20253;-78
2021/11/04 04:51:20;;;;;;;4.37;3.97;;;5.60;99.90;;;;;;5043925;28;20238;-79
2021/11/04 04:53:46;;;;;;;4.00;3.63;;;5.60;99.90;;;;;;5043437;28;20172;-80
2021/11/04 04:56:12;;;;;;;4.30;4.00;;;5.70;99.90;;;;;;5023171;28;20677;-79
2021/11/04 04:58:38;;;;;;;4.23;3.93;;;5.60;99.90;;;;;;5036406;28;20181;-79
2021/11/04 05:01:03;;;;;;;4.67;4.27;;;5.50;99.90;;;;;;5032995;28;20217;-78
2021/11/04 05:03:29;;;;;;;4.77;4.37;;;5.50;99.90;;;;;;5023674;28;20608;-79
2021/11/04 05:05:55;;;;;;;4.90;4.50;;;5.40;99.90;;;;;;5030844;28;20177;-79
2021/11/04 05:08:20;;;;;;;5.07;4.57;;;5.50;99.90;;;;;;5036019;28;20199;-79
2021/11/04 05:10:46;;;;;;;5.17;4.77;;;5.60;99.90;;;;;;5017701;28;20200;-79
2021/11/04 05:13:12;;;;;;;4.80;4.40;;;5.60;99.90;;;;;;5037178;28;20172;-79
2021/11/04 05:15:38;;;;;;;5.27;4.73;;;5.60;99.90;;;;;;5035465;28;20576;-79
2021/11/04 05:18:07;;;;;;;5.00;4.50;;;5.60;99.90;;;;;;5019081;28;20174;-78
2021/11/04 05:20:33;;;;;;;4.70;4.30;;;5.70;99.90;;;;;;5018994;28;20553;-78
2021/11/04 05:22:59;;;;;;;5.23;4.83;;;5.70;99.90;;;;;;5018920;28;20202;-79
2021/11/04 05:25:25;;;;;;;5.57;5.07;;;5.70;99.90;;;;;;5036510;28;20175;-78
2021/11/04 05:27:50;;;;;;;5.53;5.00;;;5.60;99.90;;;;;;5036409;28;20192;-78
2021/11/04 05:30:17;;;;;;;6.23;5.63;;;5.70;99.90;;;;;;5036649;28;20260;-78
2021/11/04 05:32:43;;;;;;;5.30;4.90;;;5.70;99.90;;;;;;5018570;28;20165;-79
2021/11/04 05:35:09;;;;;;;6.17;5.67;;;5.60;99.90;;;;;;5036492;28;20210;-78
2021/11/04 05:37:35;;;;;;;5.67;5.20;;;5.70;99.90;;;;;;5022707;28;20277;-79
2021/11/04 05:40:01;;;;;;;5.93;5.50;;;5.50;99.90;;;;;;5042505;28;20198;-78
2021/11/04 05:42:26;;;;;;;6.10;5.60;;;5.60;99.90;;;;;;5042356;28;20179;-78
2021/11/04 05:44:52;;;;;;;6.63;5.93;;;5.60;99.90;;;;;;5043750;28;20179;-78
2021/11/04 05:47:18;;;;;;;6.07;5.43;;;5.60;99.90;;;;;;5023169;28;20176;-79
2021/11/04 05:52:20;;;;;;;6.20;5.70;;;5.60;99.90;;;;;;5025414;28;20226;-79
2021/11/04 05:54:45;;;;;;;6.10;5.57;;;5.60;99.90;;;;;;5038015;28;20548;-82
2021/11/04 05:57:11;;;;;;;7.33;6.47;;;5.60;99.90;;;;;;5020813;28;20661;-80
2021/11/04 05:59:37;;;;;;;7.00;6.30;;;5.70;99.90;;;;;;5024423;28;20188;-80
2021/11/04 06:02:02;;;;;;;5.97;5.47;;;5.70;99.90;;;;;;5016231;28;20206;-81
2021/11/04 06:04:34;;;;;;;6.27;5.67;;;5.70;99.90;;;;;;5015986;28;20189;-79
2021/11/04 06:07:00;;;;;;;6.80;6.30;;;5.70;99.90;;;;;;5017437;28;20185;-82
2021/11/04 06:09:25;;;;;;;7.20;6.60;;;5.70;99.90;;;;;;5015681;28;20615;-82
2021/11/04 06:11:51;;;;;;;7.73;6.00;;;5.70;99.90;;;;;;5015715;28;20200;-80
2021/11/04 06:14:17;;;;;;;7.27;6.40;;;5.80;99.90;;;;;;5018065;28;20172;-79
2021/11/04 06:16:43;;;;;;;6.37;5.83;;;5.80;99.90;;;;;;5016732;28;20208;-80
2021/11/04 06:19:08;;;;;;;6.93;6.33;;;5.80;99.90;;;;;;5015070;28;20207;-80
2021/11/04 06:21:34;;;;;;;7.03;6.43;;;5.90;99.90;;;;;;5015743;28;20216;-80
2021/11/04 06:24:00;;;;;;;6.50;5.90;;;5.80;99.90;;;;;;5013411;28;20662;-82
2021/11/04 06:26:25;;;;;;;6.27;5.77;;;5.70;99.90;;;;;;5032569;28;20177;-82
2021/11/04 06:28:51;;;;;;;6.97;6.27;;;5.70;99.90;;;;;;5018560;28;20204;-79
2021/11/04 06:31:17;;;;;;;7.10;6.50;;;5.70;99.90;;;;;;5019735;28;20275;-79
2021/11/04 06:33:42;;;;;;;5.97;5.50;;;5.70;99.90;;;;;;5016271;28;20637;-77
2021/11/04 06:36:08;;;;;;;5.90;5.40;;;5.80;99.90;;;;;;5015463;28;20181;-79
2021/11/04 06:38:34;;;;;;;6.33;5.63;;;5.70;99.90;;;;;;5015873;28;20188;-78
2021/11/04 06:41:01;;;;;;;4.87;4.47;;;5.80;99.90;;;;;;5015375;28;20201;-77
2021/11/04 06:43:27;;;;;;;5.57;5.17;;;5.70;99.90;;;;;;5015869;28;20177;-78
2021/11/04 06:45:53;;;;;;;5.23;4.83;;;5.70;99.90;;;;;;5015533;28;20175;-77
2021/11/04 06:48:24;;;;;;;4.83;4.53;;;5.70;99.90;;;;;;5015429;28;20203;-78
2021/11/04 06:50:53;;;;;;;5.43;4.90;;;5.70;99.90;;;;;;5015247;28;20215;-79
2021/11/04 06:53:22;;;;;;;5.97;5.47;;;5.70;99.90;;;;;;5015833;28;20238;-78
2021/11/04 06:55:51;;;;;;;5.10;4.70;;;5.60;99.90;;;;;;5016110;28;20596;-79
2021/11/04 06:58:19;;;;;;;5.37;4.93;;;5.60;99.90;;;;;;5017257;28;20263;-81
2021/11/04 07:00:46;;;;;;;7.10;5.37;;;5.60;99.90;;;;;;5016411;28;20196;-82
2021/11/04 07:03:30;;;;;;;5.60;5.20;;;5.60;99.90;;;;;;5016820;28;20190;-77
2021/11/04 07:06:07;;;;;;;5.70;5.30;;;5.70;99.90;;;;;;5017094;28;20191;-77
2021/11/04 07:08:49;;;;;;;5.93;5.43;;;5.80;99.90;;;;;;5017089;28;20202;-77
2021/11/04 07:11:15;;;;;;;5.37;4.97;;;5.80;99.90;;;;;;5016796;28;20205;-77
2021/11/04 07:13:41;;;;;;;5.97;5.07;;;5.70;99.90;;;;;;5016192;28;20188;-77
2021/11/04 07:16:07;;;;;;;5.30;4.80;;;5.70;99.90;;;;;;5016440;28;20181;-79
2021/11/04 07:18:33;;;;;;;5.23;4.73;;;5.80;99.90;;;;;;5016397;28;20181;-77
2021/11/04 07:21:33;;;;;;;5.27;4.73;;;5.80;99.90;;;;;;5015544;28;20201;-79
2021/11/04 07:24:02;;;;;;;5.37;4.93;;;5.70;99.90;;;;;;5016315;28;20184;-77
2021/11/04 07:26:43;;;;;;;5.57;5.13;;;5.80;99.90;;;;;;5016101;28;20556;-77
2021/11/04 07:29:11;;;;;;;5.57;5.07;;;5.80;99.90;;;;;;5015244;28;20201;-76
2021/11/04 07:31:39;;;;;;;5.63;5.13;;;5.70;99.90;;;;;;5017383;28;20248;-78
2021/11/04 07:34:07;;;;;;;6.77;5.50;;;5.70;99.90;;;;;;5015679;28;20186;-80
2021/11/04 07:36:35;;;;;;;8.67;5.70;;;5.70;99.90;;;;;;5015393;28;20639;-78
2021/11/04 07:39:02;;;;;;;6.73;6.13;;;5.70;99.90;;;;;;5015231;28;20187;-78
2021/11/04 07:41:30;;;;;;;5.73;5.23;;;5.70;99.90;;;;;;5015536;28;20250;-79
2021/11/04 07:43:58;;;;;;;6.93;6.33;;;5.70;99.90;;;;;;5015537;28;20182;-77
2021/11/04 07:46:24;;;;;;;6.00;5.50;;;5.80;99.90;;;;;;5015308;28;20234;-77
2021/11/04 07:48:50;;;;;;;6.97;6.37;;;5.90;99.90;;;;;;5015845;28;20200;-78
2021/11/04 07:51:16;;;;;;;6.20;5.63;;;5.80;99.90;;;;;;5015452;28;20215;-77
2021/11/04 07:53:42;;;;;;;6.67;6.07;;;5.80;99.90;;;;;;5015278;28;20259;-79
2021/11/04 07:56:09;;;;;;;6.73;6.10;;;5.80;99.90;;;;;;5014952;28;20176;-79
2021/11/04 07:58:36;;;;;;;6.67;6.17;;;5.80;99.90;;;;;;5015361;28;20295;-79
2021/11/04 08:01:02;;;;;;;7.60;6.93;;;5.80;99.90;;;;;;5015449;28;20229;-77
2021/11/04 08:03:27;;;;;;;7.33;6.73;;;5.80;99.90;;;;;;5015554;28;20240;-79
2021/11/04 08:05:53;;;;;;;6.33;5.83;;;5.80;99.90;;;;;;5015466;28;20191;-78
2021/11/04 08:08:19;;;;;;;6.83;6.23;;;5.80;99.90;;;;;;5017387;28;20198;-78
2021/11/04 08:10:44;;;;;;;6.43;5.47;;;5.90;99.90;;;;;;5015111;28;20192;-79
2021/11/04 08:13:13;;;;;;;6.67;6.10;;;5.90;99.90;;;;;;5014622;28;20209;-77
2021/11/04 08:15:40;;;;;;;7.07;6.07;;;5.90;99.90;;;;;;5015227;28;20169;-78
2021/11/04 08:18:10;;;;;;;6.20;5.70;;;5.90;99.90;;;;;;5015114;28;20232;-79
2021/11/04 08:20:36;;;;;;;6.70;6.10;;;5.90;99.90;;;;;;5014252;28;20208;-79
2021/11/04 08:23:08;;;;;;;6.67;6.10;;;6.00;99.90;;;;;;5005391;28;20654;-76
2021/11/04 08:25:34;;;;;;;7.00;6.40;;;6.00;99.90;;;;;;5014469;28;20181;-77
2021/11/04 08:28:00;;;;;;;6.53;6.03;;;6.00;99.90;;;;;;5015315;28;20250;-78
2021/11/04 08:30:26;;;;;;;7.17;6.13;;;6.00;99.90;;;;;;5014788;28;20756;-78
2021/11/04 08:32:52;;;;;;;7.73;7.13;;;6.00;99.90;;;;;;5013674;28;20172;-76
2021/11/04 08:35:17;;;;;;;7.57;6.93;;;6.00;99.90;;;;;;5012898;28;20265;-77
2021/11/04 08:37:45;;;;;;;6.90;6.30;;;6.10;99.90;;;;;;5012387;28;20262;-78
2021/11/04 08:40:11;;;;;;;7.87;7.07;;;6.10;99.90;;;;;;5012498;28;20188;-79
2021/11/04 08:42:38;;;;;;;7.40;6.70;;;6.10;99.90;;;;;;5012569;28;20534;-79
2021/11/04 08:45:05;;;;;;;7.40;6.77;;;6.20;99.90;;;;;;5012307;28;20188;-79
2021/11/04 08:47:30;;;;;;;7.20;6.50;;;6.10;99.90;;;;;;5011960;28;20193;-77
2021/11/04 08:49:58;;;;;;;7.43;6.83;;;6.20;99.90;;;;;;5011634;28;20631;-78
2021/11/04 08:52:24;;;;;;;8.40;7.00;;;6.20;99.90;;;;;;5013582;28;20183;-77
2021/11/04 08:54:51;;;;;;;7.00;6.40;;;6.10;99.90;;;;;;5012190;28;20183;-78
2021/11/04 08:57:17;;;;;;;8.40;7.60;;;6.10;99.90;;;;;;5012819;28;20605;-77
2021/11/04 08:59:43;;;;;;;8.13;7.33;;;6.20;99.90;;;;;;5012464;28;20180;-78
2021/11/04 09:02:16;;;;;;;11.70;7.43;;;6.20;99.90;;;;;;5011951;28;20204;-77
2021/11/04 09:04:43;;;;;;;8.87;7.97;;;6.30;99.90;;;;;;5012247;28;20180;-79
2021/11/04 09:07:10;;;;;;;8.90;8.00;;;6.20;99.90;;;;;;5012015;28;20178;-77
2021/11/04 09:09:37;;;;;;;8.17;7.43;;;6.20;99.90;;;;;;5012163;28;20204;-78
2021/11/04 09:12:03;;;;;;;7.93;7.33;;;6.20;99.90;;;;;;5012082;28;20733;-78
2021/11/04 09:14:28;;;;;;;10.60;8.00;;;6.30;99.90;;;;;;5013377;28;20553;-77
2021/11/04 09:16:54;;;;;;;7.67;6.97;;;6.30;99.90;;;;;;5011991;28;20184;-79
2021/11/04 09:19:20;;;;;;;8.87;7.97;;;6.30;99.90;;;;;;5012046;28;20175;-77
2021/11/04 09:21:46;;;;;;;8.00;7.30;;;6.30;99.90;;;;;;5011990;28;20206;-77
2021/11/04 09:24:12;;;;;;;8.40;7.60;;;6.30;99.90;;;;;;5011577;28;20175;-79
2021/11/04 09:26:38;;;;;;;8.67;7.87;;;6.30;99.90;;;;;;5012334;28;20188;-78
2021/11/04 09:29:05;;;;;;;8.03;7.23;;;6.30;99.90;;;;;;5012144;28;20676;-78
2021/11/04 09:31:31;;;;;;;8.13;7.53;;;6.40;99.90;;;;;;5012223;28;20226;-78
2021/11/04 09:33:57;;;;;;;8.10;7.30;;;6.40;99.90;;;;;;5011951;28;20233;-76
2021/11/04 09:36:29;;;;;;;8.07;7.37;;;6.40;99.90;;;;;;5011996;28;20182;-77
2021/11/04 09:38:59;;;;;;;8.27;7.57;;;6.40;99.90;;;;;;5012934;28;20211;-78
2021/11/04 09:41:25;;;;;;;7.43;6.83;;;6.40;99.90;;;;;;5013363;28;20326;-80
2021/11/04 09:43:50;;;;;;;7.20;6.60;;;6.40;99.90;;;;;;5013419;28;20656;-79
2021/11/04 09:46:16;;;;;;;6.77;6.17;;;6.50;99.90;;;;;;5013430;28;20673;-80
2021/11/04 09:48:42;;;;;;;7.33;6.73;;;6.40;99.90;;;;;;5015268;28;20192;-80
2021/11/04 09:51:09;;;;;;;7.00;6.40;;;6.40;99.90;;;;;;5013964;28;20208;-78
2021/11/04 09:53:35;;;;;;;5.73;5.23;;;6.50;99.90;;;;;;5013706;28;20383;-78
2021/11/04 09:56:02;;;;;;;6.17;5.57;;;6.50;99.90;;;;;;5013028;28;20193;-78
2021/11/04 09:58:31;;;;;;;6.77;5.73;;;6.60;99.90;;;;;;5014098;28;20183;-80
2021/11/04 10:01:17;;;;;;;5.47;4.97;;;6.60;99.90;;;;;;5016809;28;20684;-80
2021/11/04 10:03:44;;;;;;;5.27;4.87;;;6.60;99.90;;;;;;5016938;28;20713;-79
2021/11/04 10:06:26;;;;;;;5.20;4.80;;;6.60;99.90;;;;;;5017481;28;20554;-80
2021/11/04 10:08:53;;;;;;;5.33;4.93;;;6.60;99.90;;;;;;5017300;28;20196;-79
2021/11/04 10:11:21;;;;;;;4.93;4.53;;;6.60;99.90;;;;;;5016976;28;20264;-79
2021/11/04 10:13:48;;;;;;;5.03;4.63;;;6.70;99.90;;;;;;5016700;28;20192;-80
2021/11/04 10:16:16;;;;;;;4.50;4.20;;;6.60;99.90;;;;;;5017138;28;20182;-78
2021/11/04 10:18:51;;;;;;;5.20;4.80;;;6.60;99.90;;;;;;5016891;28;20235;-80
2021/11/04 10:21:26;;;;;;;5.10;4.60;;;6.70;99.90;;;;;;5016499;28;20198;-78
2021/11/04 10:23:53;;;;;;;5.10;4.70;;;6.70;99.90;;;;;;5016857;28;20276;-79
2021/11/04 10:26:21;;;;;;;4.43;3.93;;;6.70;99.90;;;;;;5016381;28;20185;-78
2021/11/04 10:28:50;;;;;;;4.73;4.33;;;6.70;99.90;;;;;;5015046;28;20193;-79
2021/11/04 10:31:18;;;;;;;3.90;3.60;;;6.70;99.90;;;;;;5019982;28;20232;-79
2021/11/04 10:33:47;;;;;;;4.40;4.10;;;6.70;99.90;;;;;;5017168;28;20173;-79
2021/11/04 10:36:24;;;;;;;4.23;3.93;;;6.70;99.90;;;;;;5019659;28;20246;-80
2021/11/04 10:38:58;;;;;;;4.53;3.90;;;6.60;99.90;;;;;;5018777;28;20185;-79
2021/11/04 10:41:39;;;;;;;4.20;3.67;;;6.70;99.90;;;;;;5017318;28;20248;-80
2021/11/04 10:44:11;;;;;;;4.53;4.13;;;6.70;99.90;;;;;;5017681;28;20217;-80
2021/11/04 10:46:41;;;;;;;4.10;3.80;;;6.70;99.90;;;;;;5017695;28;20209;-79
2021/11/04 10:49:08;;;;;;;4.30;4.00;;;6.70;99.90;;;;;;5017095;28;20192;-78
2021/11/04 10:51:33;;;;;;;4.40;4.00;;;6.80;99.90;;;;;;5017094;28;20208;-79
2021/11/04 10:54:03;;;;;;;4.40;4.10;;;6.80;99.90;;;;;;5017166;28;20524;-79
2021/11/04 10:56:33;;;;;;;4.87;4.40;;;6.70;99.90;;;;;;5017040;28;20256;-79
2021/11/04 10:59:10;;;;;;;4.80;4.37;;;6.70;99.90;;;;;;5016581;28;20177;-79
2021/11/04 11:01:42;;;;;;;5.33;4.83;;;6.70;99.90;;;;;;5016505;28;20200;-80
2021/11/04 11:04:08;;;;;;;4.73;4.33;;;6.70;99.90;;;;;;5017286;28;20180;-78
2021/11/04 11:06:38;;;;;;;5.50;5.10;;;6.70;99.90;;;;;;5017195;28;20701;-78
2021/11/04 11:09:06;;;;;;;5.10;4.70;;;6.60;99.90;;;;;;5016922;28;20199;-80
2021/11/04 11:11:34;;;;;;;5.50;5.10;;;6.60;99.90;;;;;;5016435;28;20198;-80
2021/11/04 11:13:59;;;;;;;5.37;4.83;;;6.70;99.90;;;;;;5016567;28;20174;-79
2021/11/04 11:16:25;;;;;;;5.60;5.17;;;6.70;99.90;;;;;;5016420;28;20186;-79
2021/11/04 11:18:57;;;;;;;5.07;4.67;;;6.70;99.90;;;;;;5016472;28;20175;-80
2021/11/04 11:21:27;;;;;;;5.30;4.90;;;6.80;99.90;;;;;;5016989;28;20227;-81
2021/11/04 11:23:54;;;;;;;5.80;5.33;;;6.80;99.90;;;;;;5016892;28;20207;-79
2021/11/04 11:26:20;;;;;;;5.37;4.90;;;6.90;99.90;;;;;;5016237;28;20181;-78
2021/11/04 11:28:47;;;;;;;5.60;5.20;;;6.90;99.90;;;;;;5017211;28;20196;-81
2021/11/04 11:31:18;;;;;;;6.00;5.50;;;6.90;99.90;;;;;;5016561;28;20197;-78
2021/11/04 11:34:11;;;;;;;6.17;5.57;;;7.00;99.90;;;;;;5016385;28;20669;-80
2021/11/04 11:36:38;;;;;;;6.27;5.77;;;7.10;99.90;;;;;;5016316;28;20205;-78
2021/11/04 11:39:13;;;;;;;5.90;5.40;;;7.20;99.90;;;;;;5016264;28;20181;-79
2021/11/04 11:41:51;;;;;;;6.83;5.60;;;7.10;99.90;;;;;;5015501;28;20211;-78
2021/11/04 11:44:35;;;;;;;5.73;5.33;;;7.10;99.90;;;;;;5016359;28;20279;-78
2021/11/04 11:47:03;;;;;;;5.90;5.40;;;7.10;99.90;;;;;;5017174;28;20213;-78
2021/11/04 11:49:31;;;;;;;6.00;5.50;;;7.20;99.90;;;;;;5015783;28;20732;-78
2021/11/04 11:51:57;;;;;;;5.90;5.40;;;7.20;99.90;;;;;;5060852;22;20292;-80
2021/11/04 11:54:58;;;;;;;6.17;5.20;;;7.20;99.90;;;;;;5038532;28;20712;-79
2021/11/04 11:57:24;;;;;;;5.03;4.60;;;7.30;99.90;;;;;;5026530;28;20179;-79
2021/11/04 11:59:55;;;;;;;5.63;5.23;;;7.30;99.90;;;;;;5043200;28;20183;-79
2021/11/04 12:02:42;;;;;;;5.57;5.03;;;7.30;99.90;;;;;;5027978;28;20196;-79
2021/11/04 12:05:27;;;;;;;5.23;4.73;;;7.50;99.90;;;;;;5009125;28;20182;-78
2021/11/04 12:07:54;;;;;;;4.93;4.53;;;7.50;99.90;;;;;;5005777;28;20228;-79
2021/11/04 12:10:29;;;;;;;4.77;4.37;;;7.60;99.90;;;;;;5022231;28;20187;-79
2021/11/04 12:12:55;;;;;;;4.43;4.10;;;7.70;99.90;;;;;;5023100;28;20187;-79
2021/11/04 12:15:21;;;;;;;3.50;3.20;;;7.70;99.90;;;;;;5003840;28;20177;-80
2021/11/04 12:18:09;;;;;;;3.77;3.47;;;7.70;99.90;;;;;;4999533;28;20181;-78
2021/11/04 12:20:36;;;;;;;3.43;3.13;;;7.70;99.90;;;;;;4998820;28;20215;-78
2021/11/04 12:23:01;;;;;;;4.20;3.90;;;7.70;99.90;;;;;;4998236;28;20206;-78
2021/11/04 12:25:28;;;;;;;3.73;3.30;;;7.80;99.90;;;;;;4998084;28;20183;-78
2021/11/04 12:27:58;;;;;;;2.90;2.70;;;7.80;99.90;;;;;;4998219;28;20198;-78
2021/11/04 12:30:29;;;;;;;3.93;3.63;;;7.70;99.90;;;;;;4995826;28;20175;-78
2021/11/04 12:33:09;;;;;;;3.50;3.20;;;7.70;99.90;;;;;;5014175;28;20197;-78
2021/11/04 12:35:52;;;;;;;3.10;2.90;;;7.70;99.90;;;;;;4998266;28;20227;-78
2021/11/04 12:38:22;;;;;;;3.33;3.13;;;7.70;99.90;;;;;;4998482;28;20296;-78
2021/11/04 12:41:05;;;;;;;3.50;3.20;;;7.70;99.90;;;;;;4998087;28;20264;-78
2021/11/04 12:43:32;;;;;;;3.30;2.80;;;7.70;99.90;;;;;;4998141;28;20176;-79
2021/11/04 12:46:21;;;;;;;3.27;3.07;;;7.70;99.90;;;;;;4998595;28;20210;-78
2021/11/04 12:48:48;;;;;;;2.97;2.77;;;7.70;99.90;;;;;;5014379;28;20198;-79
2021/11/04 12:51:16;;;;;;;2.97;2.77;;;7.60;99.90;;;;;;4998002;28;20227;-79
2021/11/04 12:54:09;;;;;;;2.83;2.63;;;7.60;99.90;;;;;;4998133;28;20214;-78
2021/11/04 12:56:47;;;;;;;2.33;2.20;;;7.50;99.90;;;;;;4995416;28;20546;-78
2021/11/04 12:59:31;;;;;;;2.13;1.97;;;7.50;99.90;;;;;;4998247;28;20662;-79
2021/11/04 13:02:22;;;;;;;3.10;2.63;;;7.60;99.90;;;;;;4997774;28;20202;-78
2021/11/04 13:05:01;;;;;;;2.60;2.40;;;7.50;99.90;;;;;;4998122;28;20183;-79
2021/11/04 13:07:34;;;;;;;2.33;2.20;;;7.60;99.90;;;;;;4998055;28;20225;-78